createdAt,value
2023-01-13T00:02:02.969Z,94.23
2023-01-13T00:05:05.769Z,94.54
2023-01-13T00:08:10.050Z,94.86
2023-01-13T00:11:13.689Z,94.26
2023-01-13T00:14:18.641Z,94.51
2023-01-13T00:17:23.224Z,94.15
2023-01-13T00:20:25.437Z,93.69
2023-01-13T00:23:29.278Z,93.81
2023-01-13T00:26:33.688Z,93.77
2023-01-13T00:29:39.263Z,93.81
2023-01-13T00:32:41.476Z,93.85
2023-01-13T00:35:43.681Z,93.43
2023-01-13T00:38:47.676Z,92.99
2023-01-13T00:42:09.691Z,92.19
2023-01-13T00:45:11.944Z,92.46
2023-01-13T00:48:14.984Z,92.20
2023-01-13T00:51:19.442Z,91.46
2023-01-13T00:54:22.311Z,91.42
2023-01-13T00:57:24.587Z,90.91
2023-01-13T01:00:26.936Z,91.84
2023-01-13T01:03:29.967Z,91.82
2023-01-13T01:06:32.299Z,92.06
2023-01-13T01:09:35.991Z,91.56
2023-01-13T01:12:38.363Z,90.76
2023-01-13T01:15:44.175Z,90.67
2023-01-13T01:18:48.613Z,91.15
2023-01-13T01:21:55.030Z,92.23
2023-01-13T01:24:58.839Z,91.57
2023-01-13T01:28:04.983Z,91.53
2023-01-13T01:31:13.942Z,92.53
2023-01-13T01:34:16.903Z,91.98
2023-01-13T01:37:19.099Z,91.45
2023-01-13T01:40:21.813Z,91.93
2023-01-13T01:44:00.122Z,91.66
2023-01-13T01:47:02.515Z,92.00
2023-01-13T01:50:06.266Z,92.23
2023-01-13T01:53:17.670Z,92.33
2023-01-13T01:56:21.035Z,92.42
2023-01-13T01:59:25.177Z,92.36
2023-01-13T02:02:34.024Z,91.48
2023-01-13T02:05:39.276Z,91.38
2023-01-13T02:08:41.575Z,91.48
2023-01-13T02:12:02.521Z,91.09
2023-01-13T02:15:09.883Z,91.23
2023-01-13T02:18:13.769Z,91.04
2023-01-13T02:21:38.341Z,91.63
2023-01-13T02:25:13.173Z,91.90
2023-01-13T02:29:06.889Z,91.72
2023-01-13T02:32:19.472Z,91.50
2023-01-13T02:35:30.076Z,91.93
2023-01-13T02:38:41.892Z,91.40
2023-01-13T02:42:13.056Z,91.06
2023-01-13T02:45:18.764Z,90.64
2023-01-13T02:48:24.100Z,90.65
2023-01-13T02:51:29.105Z,90.95
2023-01-13T02:54:35.911Z,91.29
2023-01-13T02:57:40.608Z,91.24
2023-01-13T03:00:44.526Z,91.79
2023-01-13T03:03:52.053Z,91.36
2023-01-13T03:07:07.756Z,91.46
2023-01-13T03:10:39.232Z,91.82
2023-01-13T03:14:13.415Z,90.76
2023-01-13T03:18:00.943Z,91.30
2023-01-13T03:21:15.049Z,91.18
2023-01-13T03:24:20.962Z,90.61
2023-01-13T03:27:33.945Z,90.44
2023-01-13T03:30:50.152Z,89.89
2023-01-13T03:34:16.031Z,90.50
2023-01-13T03:37:25.755Z,91.03
2023-01-13T03:40:35.375Z,90.67
2023-01-13T03:44:02.949Z,90.73
2023-01-13T03:47:12.573Z,91.50
2023-01-13T03:50:20.122Z,90.55
2023-01-13T03:53:32.582Z,89.98
2023-01-13T03:56:50.261Z,89.60
2023-01-13T03:59:59.282Z,89.53
2023-01-13T04:03:09.367Z,90.77
2023-01-13T04:06:23.520Z,90.60
2023-01-13T04:09:50.035Z,91.29
2023-01-13T04:13:07.059Z,91.20
2023-01-13T04:16:11.840Z,90.87
2023-01-13T04:19:14.316Z,91.41
2023-01-13T04:22:23.207Z,91.64
2023-01-13T04:25:25.617Z,91.57
2023-01-13T04:28:28.100Z,91.77
2023-01-13T04:31:30.384Z,91.18
2023-01-13T04:34:33.798Z,90.13
2023-01-13T04:37:37.246Z,89.61
2023-01-13T04:40:40.395Z,90.12
2023-01-13T04:43:42.607Z,90.46
2023-01-13T04:46:44.994Z,90.95
2023-01-13T04:49:48.208Z,90.32
2023-01-13T04:52:51.379Z,90.58
2023-01-13T04:55:55.057Z,91.38
2023-01-13T04:58:59.428Z,90.89
2023-01-13T05:02:01.959Z,90.88
2023-01-13T05:05:05.129Z,90.83
2023-01-13T05:08:09.097Z,90.86
2023-01-13T05:11:33.241Z,90.50
2023-01-13T05:14:54.069Z,91.24
2023-01-13T05:17:56.378Z,91.41
2023-01-13T05:21:01.553Z,90.83
2023-01-13T05:24:22.504Z,91.45
2023-01-13T05:27:24.940Z,90.68
2023-01-13T05:30:30.303Z,90.35
2023-01-13T05:33:34.929Z,90.63
2023-01-13T05:36:40.667Z,91.41
2023-01-13T05:40:02.000Z,90.27
2023-01-13T05:43:25.208Z,90.93
2023-01-13T05:46:28.959Z,91.44
2023-01-13T05:49:31.581Z,91.31
2023-01-13T05:52:34.002Z,91.68
2023-01-13T05:55:39.127Z,91.52
2023-01-13T05:58:41.376Z,91.53
2023-01-13T06:01:44.432Z,90.37
2023-01-13T06:04:46.804Z,91.25
2023-01-13T06:07:49.085Z,91.23
2023-01-13T06:10:51.354Z,91.35
2023-01-13T06:13:54.291Z,91.45
2023-01-13T06:16:56.665Z,91.23
2023-01-13T06:19:58.956Z,91.05
2023-01-13T06:23:01.847Z,90.15
2023-01-13T06:26:20.080Z,90.45
2023-01-13T06:29:22.371Z,89.80
2023-01-13T06:32:38.940Z,89.03
2023-01-13T06:35:54.320Z,89.16
2023-01-13T06:39:01.872Z,89.50
2023-01-13T06:42:23.472Z,89.35
2023-01-13T06:45:29.881Z,89.55
2023-01-13T06:48:35.674Z,89.32
2023-01-13T06:51:41.761Z,88.04
2023-01-13T06:54:45.297Z,89.10
2023-01-13T06:57:52.755Z,88.77
2023-01-13T07:01:00.021Z,87.97
2023-01-13T07:04:05.269Z,87.29
2023-01-13T07:07:18.205Z,87.82
2023-01-13T07:10:24.619Z,87.98
2023-01-13T07:13:50.319Z,87.64
2023-01-13T07:16:56.287Z,87.21
2023-01-13T07:19:59.127Z,86.29
2023-01-13T07:23:01.410Z,86.51
2023-01-13T07:26:04.593Z,85.07
2023-01-13T07:29:08.093Z,84.79
2023-01-13T07:32:15.717Z,85.51
2023-01-13T07:35:23.401Z,84.92
2023-01-13T07:38:27.840Z,83.53
2023-01-13T07:41:51.730Z,83.48
2023-01-13T07:44:56.339Z,83.73
2023-01-13T07:47:58.710Z,81.69
2023-01-13T07:51:07.436Z,81.94
2023-01-13T07:54:09.762Z,81.96
2023-01-13T07:57:13.776Z,82.50
2023-01-13T08:00:21.284Z,81.68
2023-01-13T08:03:24.128Z,81.63
2023-01-13T08:06:26.952Z,81.04
2023-01-13T08:09:30.667Z,81.63
2023-01-13T08:12:57.163Z,81.86
2023-01-13T08:16:08.896Z,81.68
2023-01-13T08:19:12.313Z,82.32
2023-01-13T08:22:14.730Z,82.81
2023-01-13T08:25:19.880Z,82.44
2023-01-13T08:28:24.172Z,82.09
2023-01-13T08:31:26.552Z,80.58
2023-01-13T08:34:30.944Z,80.02
2023-01-13T08:37:39.509Z,81.19
2023-01-13T08:40:42.440Z,80.51
2023-01-13T08:43:46.114Z,80.12
2023-01-13T08:46:54.237Z,80.49
2023-01-13T08:49:56.723Z,79.61
2023-01-13T08:53:00.968Z,79.83
2023-01-13T08:56:12.708Z,79.60
2023-01-13T08:59:17.349Z,79.31
2023-01-13T09:02:22.203Z,80.03
2023-01-13T09:05:26.385Z,80.10
2023-01-13T09:08:28.799Z,79.56
2023-01-13T09:11:54.530Z,80.14
2023-01-13T09:14:59.146Z,80.26
2023-01-13T09:18:06.987Z,80.00
2023-01-13T09:21:12.354Z,79.40
2023-01-13T09:24:14.798Z,78.67
2023-01-13T09:27:17.145Z,78.42
2023-01-13T09:30:20.821Z,78.70
2023-01-13T09:33:43.038Z,77.38
2023-01-13T09:37:04.806Z,77.11
2023-01-13T09:40:18.502Z,76.73
2023-01-13T09:43:46.060Z,76.54
2023-01-13T09:46:57.027Z,77.38
2023-01-13T09:50:22.194Z,77.16
2023-01-13T09:53:39.079Z,77.94
2023-01-13T09:56:42.671Z,77.31
2023-01-13T09:59:45.691Z,77.34
2023-01-13T10:03:01.874Z,77.76
2023-01-13T10:06:10.880Z,78.94
2023-01-13T10:09:51.486Z,79.51
2023-01-13T10:13:14.103Z,79.37
2023-01-13T10:16:42.016Z,78.86
2023-01-13T10:20:17.771Z,78.19
2023-01-13T10:23:44.825Z,78.67
2023-01-13T10:26:55.094Z,78.37
2023-01-13T10:29:57.521Z,77.59
2023-01-13T10:33:06.673Z,78.39
2023-01-13T10:36:15.127Z,79.09
2023-01-13T10:39:17.698Z,79.86
2023-01-13T10:42:24.157Z,79.42
2023-01-13T10:45:26.522Z,79.28
2023-01-13T10:48:37.377Z,78.00
2023-01-13T10:51:40.216Z,77.91
2023-01-13T10:54:52.340Z,79.62
2023-01-13T10:57:54.819Z,80.59
2023-01-13T11:01:07.410Z,79.64
2023-01-13T11:04:31.343Z,79.70
2023-01-13T11:07:35.182Z,80.11
2023-01-13T11:10:48.662Z,79.55
2023-01-13T11:14:12.752Z,79.01
2023-01-13T11:17:31.334Z,79.95
2023-01-13T11:20:38.486Z,79.90
2023-01-13T11:23:48.689Z,79.47
2023-01-13T11:27:02.128Z,80.41
2023-01-13T11:30:29.703Z,80.67
2023-01-13T11:33:40.411Z,80.47
2023-01-13T11:36:50.767Z,79.95
2023-01-13T11:40:18.771Z,80.76
2023-01-13T11:43:32.516Z,80.31
2023-01-13T11:46:34.961Z,80.34
2023-01-13T11:49:39.964Z,79.41
2023-01-13T11:52:49.409Z,79.60
2023-01-13T11:56:20.101Z,80.14
2023-01-13T11:59:57.769Z,79.79
2023-01-13T12:03:09.147Z,80.37
2023-01-13T12:06:17.542Z,80.49
2023-01-13T12:09:40.334Z,80.08
2023-01-13T12:13:18.771Z,80.00
2023-01-13T12:16:26.426Z,79.97
2023-01-13T12:19:32.508Z,79.95
2023-01-13T12:22:37.281Z,80.03
2023-01-13T12:25:50.338Z,79.47
2023-01-13T12:29:07.227Z,79.41
2023-01-13T12:32:19.089Z,80.69
2023-01-13T12:35:44.475Z,80.68
2023-01-13T12:38:53.271Z,81.42
2023-01-13T12:42:54.473Z,81.76
2023-01-13T12:46:20.885Z,81.42
2023-01-13T12:49:31.594Z,80.39
2023-01-13T12:52:44.297Z,80.53
2023-01-13T12:55:52.147Z,80.23
2023-01-13T12:59:17.223Z,80.35
2023-01-13T13:02:27.597Z,80.04
2023-01-13T13:05:54.843Z,79.64
2023-01-13T13:09:06.385Z,79.89
2023-01-13T13:12:49.080Z,80.21
2023-01-13T13:16:07.713Z,80.12
2023-01-13T13:19:18.675Z,79.92
2023-01-13T13:22:28.281Z,80.35
2023-01-13T13:25:30.857Z,80.67
2023-01-13T13:28:38.179Z,80.08
2023-01-13T13:32:02.184Z,80.04
2023-01-13T13:35:35.313Z,80.58
2023-01-13T13:39:27.534Z,80.98
2023-01-13T13:42:58.575Z,81.20
2023-01-13T13:46:21.190Z,81.99
2023-01-13T13:49:46.680Z,81.05
2023-01-13T13:52:59.082Z,81.34
2023-01-13T13:56:03.703Z,81.42
2023-01-13T13:59:11.215Z,81.88
2023-01-13T14:02:20.068Z,81.99
2023-01-13T14:05:28.453Z,82.37
2023-01-13T14:08:35.729Z,81.94
2023-01-13T14:11:37.967Z,81.82
2023-01-13T14:14:43.962Z,82.27
2023-01-13T14:17:46.329Z,82.01
2023-01-13T14:21:18.538Z,81.89
2023-01-13T14:24:22.571Z,82.06
2023-01-13T14:27:30.134Z,82.57
2023-01-13T14:30:33.008Z,82.85
2023-01-13T14:33:40.660Z,82.43
2023-01-13T14:36:51.025Z,82.30
2023-01-13T14:39:53.543Z,83.33
2023-01-13T14:43:15.855Z,83.31
2023-01-13T14:46:19.341Z,83.95
2023-01-13T14:49:28.546Z,83.86
2023-01-13T14:52:34.437Z,83.81
2023-01-13T14:55:40.830Z,84.70
2023-01-13T14:58:43.078Z,83.93
2023-01-13T15:01:47.658Z,84.02
2023-01-13T15:04:53.921Z,84.19
2023-01-13T15:08:01.345Z,84.75
2023-01-13T15:11:08.427Z,84.78
2023-01-13T15:14:11.502Z,84.46
2023-01-13T15:17:16.738Z,85.60
2023-01-13T15:20:22.160Z,85.49
2023-01-13T15:23:24.511Z,85.23
2023-01-13T15:26:29.155Z,84.79
2023-01-13T15:29:31.445Z,85.08
2023-01-13T15:32:38.243Z,85.86
2023-01-13T15:35:44.263Z,85.58
2023-01-13T15:38:46.544Z,85.69
2023-01-13T15:42:07.629Z,85.47
2023-01-13T15:45:31.350Z,86.13
2023-01-13T15:48:34.012Z,86.72
2023-01-13T15:51:39.013Z,86.79
2023-01-13T15:54:41.260Z,86.61
2023-01-13T15:57:49.758Z,87.01
2023-01-13T16:00:52.069Z,85.95
2023-01-13T16:03:57.041Z,87.18
2023-01-13T16:06:59.525Z,87.37
2023-01-13T16:10:05.130Z,87.59
2023-01-13T16:13:07.535Z,88.21
2023-01-13T16:16:19.011Z,87.29
2023-01-13T16:19:24.478Z,87.56
2023-01-13T16:22:26.877Z,87.89
2023-01-13T16:25:29.284Z,86.78
2023-01-13T16:28:31.754Z,85.66
2023-01-13T16:31:34.654Z,85.74
2023-01-13T16:34:37.265Z,86.08
2023-01-13T16:37:45.347Z,85.63
2023-01-13T16:40:48.160Z,84.66
2023-01-13T16:43:50.635Z,85.00
2023-01-13T16:46:52.908Z,85.68
2023-01-13T16:49:55.198Z,85.40
2023-01-13T16:52:58.653Z,85.00
2023-01-13T16:56:00.927Z,85.60
2023-01-13T16:59:09.317Z,84.74
2023-01-13T17:02:15.555Z,84.97
2023-01-13T17:05:18.017Z,84.99
2023-01-13T17:08:20.316Z,85.24
2023-01-13T17:11:22.593Z,85.46
2023-01-13T17:14:26.025Z,85.74
2023-01-13T17:17:30.913Z,85.79
2023-01-13T17:20:33.235Z,86.06
2023-01-13T17:23:35.507Z,85.53
2023-01-13T17:26:44.078Z,85.86
2023-01-13T17:29:46.381Z,85.81
2023-01-13T17:32:48.725Z,85.48
2023-01-13T17:35:51.032Z,85.84
2023-01-13T17:38:54.826Z,85.66
2023-01-13T17:41:57.123Z,85.49
2023-01-13T17:44:59.423Z,85.57
2023-01-13T17:48:01.943Z,85.42
2023-01-13T17:51:07.363Z,85.76
2023-01-13T17:54:12.795Z,85.85
2023-01-13T17:57:15.123Z,85.19
2023-01-13T18:00:17.719Z,85.33
2023-01-13T18:03:19.989Z,85.54
2023-01-13T18:06:25.653Z,85.50
2023-01-13T18:09:28.008Z,85.27
2023-01-13T18:12:30.351Z,85.58
2023-01-13T18:15:33.924Z,85.66
2023-01-13T18:18:36.297Z,85.51
2023-01-13T18:21:57.374Z,86.12
2023-01-13T18:25:18.952Z,85.77
2023-01-13T18:28:21.669Z,85.86
2023-01-13T18:31:24.813Z,85.35
2023-01-13T18:34:27.262Z,85.41
2023-01-13T18:37:29.555Z,85.68
2023-01-13T18:40:31.831Z,85.67
2023-01-13T18:43:34.142Z,85.56
2023-01-13T18:46:36.556Z,85.68
2023-01-13T18:49:38.928Z,86.05
2023-01-13T18:52:43.899Z,85.73
2023-01-13T18:55:50.042Z,85.60
2023-01-13T18:58:53.385Z,85.61
2023-01-13T19:01:55.715Z,85.45
2023-01-13T19:04:58.107Z,85.46
2023-01-13T19:08:01.121Z,85.37
2023-01-13T19:11:05.511Z,85.48
2023-01-13T19:14:07.836Z,85.00
2023-01-13T19:17:12.936Z,84.43
2023-01-13T19:20:15.569Z,84.97
2023-01-13T19:23:18.000Z,84.41
2023-01-13T19:26:20.576Z,84.91
2023-01-13T19:29:22.958Z,84.52
2023-01-13T19:32:25.326Z,84.99
2023-01-13T19:35:27.634Z,85.14
2023-01-13T19:38:30.184Z,84.68
2023-01-13T19:41:50.643Z,85.65
2023-01-13T19:45:13.800Z,85.26
2023-01-13T19:48:19.051Z,85.32
2023-01-13T19:51:21.247Z,85.32
2023-01-13T19:54:23.618Z,85.52
2023-01-13T19:57:28.665Z,85.35
2023-01-13T20:00:31.263Z,85.18
2023-01-13T20:03:37.688Z,85.48
2023-01-13T20:06:46.483Z,85.49
2023-01-13T20:09:48.831Z,84.58
2023-01-13T20:12:51.336Z,84.82
2023-01-13T20:15:53.626Z,85.74
2023-01-13T20:18:56.665Z,86.13
2023-01-13T20:21:59.205Z,85.78
2023-01-13T20:25:01.546Z,86.00
2023-01-13T20:28:04.380Z,85.69
2023-01-13T20:31:08.517Z,85.77
2023-01-13T20:34:10.865Z,85.82
2023-01-13T20:37:15.574Z,86.16
2023-01-13T20:40:21.338Z,86.37
2023-01-13T20:43:23.685Z,86.17
2023-01-13T20:46:26.024Z,86.54
2023-01-13T20:49:30.397Z,86.41
2023-01-13T20:52:36.967Z,86.39
2023-01-13T20:55:40.235Z,86.66
2023-01-13T20:58:44.034Z,86.83
2023-01-13T21:01:46.408Z,86.88
2023-01-13T21:04:48.946Z,86.70
2023-01-13T21:07:54.495Z,86.57
2023-01-13T21:11:04.962Z,87.24
2023-01-13T21:14:35.828Z,87.31
2023-01-13T21:17:56.730Z,87.98
2023-01-13T21:21:11.990Z,88.35
2023-01-13T21:24:14.355Z,87.93
2023-01-13T21:27:16.950Z,88.27
2023-01-13T21:30:19.288Z,88.96
2023-01-13T21:33:22.451Z,88.83
2023-01-13T21:36:26.988Z,89.98
2023-01-13T21:39:29.461Z,90.07
2023-01-13T21:42:50.379Z,90.45
2023-01-13T21:46:11.114Z,90.45
2023-01-13T21:49:13.425Z,90.50
2023-01-13T21:52:18.831Z,90.17
2023-01-13T21:55:29.931Z,89.89
2023-01-13T21:58:33.372Z,89.63
2023-01-13T22:01:35.706Z,90.27
2023-01-13T22:04:41.082Z,90.86
2023-01-13T22:07:46.039Z,90.80
2023-01-13T22:11:10.141Z,90.77
2023-01-13T22:14:14.015Z,90.68
2023-01-13T22:17:17.462Z,90.62
2023-01-13T22:20:20.310Z,91.07
2023-01-13T22:23:25.333Z,91.09
2023-01-13T22:26:27.868Z,90.83
2023-01-13T22:29:30.144Z,91.08
2023-01-13T22:32:35.665Z,90.97
2023-01-13T22:35:39.629Z,91.10
2023-01-13T22:38:41.894Z,91.30
2023-01-13T22:41:44.155Z,90.76
2023-01-13T22:44:46.368Z,91.14
2023-01-13T22:47:51.556Z,91.33
2023-01-13T22:50:54.020Z,91.07
2023-01-13T22:53:58.730Z,90.76
2023-01-13T22:57:02.552Z,90.75
2023-01-13T23:00:07.932Z,90.64
2023-01-13T23:03:10.261Z,90.90
2023-01-13T23:06:13.087Z,90.77
2023-01-13T23:09:15.598Z,90.71
2023-01-13T23:12:17.898Z,90.95
2023-01-13T23:15:20.487Z,91.19
2023-01-13T23:18:26.298Z,91.62
2023-01-13T23:21:31.159Z,91.84
2023-01-13T23:24:33.494Z,91.86
2023-01-13T23:27:36.482Z,91.86
2023-01-13T23:30:40.091Z,91.50
2023-01-13T23:33:43.591Z,91.96
2023-01-13T23:36:48.784Z,92.62
2023-01-13T23:39:51.057Z,92.09
2023-01-13T23:42:53.400Z,91.97
2023-01-13T23:46:25.716Z,92.34
2023-01-13T23:49:28.165Z,92.88
2023-01-13T23:52:30.437Z,93.20
2023-01-13T23:55:33.026Z,92.71
2023-01-13T23:58:38.449Z,92.35
